Kelly, Kansas
Current Conditions -  °F | °C
As of 3:53 PM on Thursday 27 Nov 2014 (Local Time) from KFNB Reporting Station
Clear Clear  
Wind Chill: 21°   Ceiling: Unl
Heat Index: 30°   Visibility: 10mi
Dew Point: 13°   Wind: 12mph
Humidity: 49%   Direction: 120°ESE
Pressure: 30.36"   Gusts: NA
Location:  39.8497°N, 96.0411°W
Report Text: KFNB 272153Z AUTO 12010KT 10SM CLR M01/M11 A3036 RMK AO2 SLP293 T10111106
Loading
Personal Weather Stations






























Interactive Weather Map New forecast layout! Learn more

10-Day Weather Forecast

Advertisements
Track Severe Weather on mobile